Time;durP1;ratioP1;P1;durP2;ratioP2;P2;SDS_P1;SDS_P2;PMS_P1;PMS_P2;Temp;Humidity;BMP_temperature;BMP_pressure;BME280_temperature;BME280_humidity;BME280_pressure;Samples;Min_cycle;Max_cycle;Signal;HPM_P1;HPM_P2
2022/02/21 00:01:23;;;;;;;830.20;778.60;;;5.70;99.90;;;;;;5012776;28;20477;-83
2022/02/21 00:03:50;;;;;;;848.97;795.17;;;5.70;99.90;;;;;;5023325;28;20484;-82
2022/02/21 00:06:19;;;;;;;856.00;801.60;;;5.70;99.90;;;;;;5023064;28;20799;-82
2022/02/21 00:08:49;;;;;;;861.50;805.90;;;5.80;99.90;;;;;;5023282;28;20473;-83
2022/02/21 00:11:21;;;;;;;865.23;808.23;;;5.80;99.90;;;;;;5017184;28;20454;-82
2022/02/21 00:13:52;;;;;;;871.23;813.63;;;5.90;99.90;;;;;;5004581;28;21069;-83
2022/02/21 00:16:28;;;;;;;865.33;806.63;;;6.00;99.90;;;;;;5011559;28;20939;-82
2022/02/21 00:18:54;;;;;;;871.83;814.00;;;5.90;99.90;;;;;;5023610;28;20460;-81
2022/02/21 00:21:23;;;;;;;875.63;817.13;;;6.30;99.90;;;;;;5016358;28;20459;-81
2022/02/21 00:23:50;;;;;;;879.03;820.23;;;6.20;99.90;;;;;;5002741;28;20482;-79
2022/02/21 00:26:18;;;;;;;877.20;818.80;;;6.20;99.90;;;;;;5003169;28;20466;-82
2022/02/21 00:28:45;;;;;;;886.33;826.83;;;6.40;99.90;;;;;;5003020;28;20565;-82
2022/02/21 00:31:12;;;;;;;882.07;823.37;;;6.50;99.90;;;;;;5007224;28;20540;-82
2022/02/21 00:33:39;;;;;;;887.40;828.60;;;6.30;99.90;;;;;;5021644;28;20460;-82
2022/02/21 00:36:06;;;;;;;886.80;828.80;;;6.40;99.90;;;;;;5017971;28;20963;-80
2022/02/21 00:38:35;;;;;;;891.93;834.00;;;6.40;99.90;;;;;;5001985;28;20454;-80
2022/02/21 00:41:03;;;;;;;889.37;832.10;;;6.70;99.90;;;;;;5003114;28;20963;-81
2022/02/21 00:43:30;;;;;;;899.23;842.43;;;6.60;99.90;;;;;;5020391;28;20453;-82
2022/02/21 00:45:57;;;;;;;900.07;842.17;;;6.90;99.90;;;;;;5014091;28;20909;-81
2022/02/21 00:48:28;;;;;;;894.37;836.53;;;6.90;99.90;;;;;;5000966;28;20450;-80
2022/02/21 00:50:55;;;;;;;878.03;821.63;;;6.80;99.90;;;;;;5006401;28;20457;-83
2022/02/21 00:53:22;;;;;;;866.90;807.90;;;6.80;99.90;;;;;;5021783;28;20481;-81
2022/02/21 00:55:50;;;;;;;820.20;763.83;;;6.50;99.90;;;;;;5012575;28;20474;-81
2022/02/21 00:58:17;;;;;;;774.77;722.53;;;5.70;99.90;;;;;;4997844;28;20528;-81
2022/02/21 01:00:44;;;;;;;710.17;663.97;;;5.50;99.90;;;;;;5000926;28;20459;-81
2022/02/21 01:03:11;;;;;;;712.50;669.00;;;5.30;99.90;;;;;;5017855;28;20453;-81
2022/02/21 01:05:40;;;;;;;756.77;710.10;;;4.90;99.90;;;;;;5015491;28;20476;-82
2022/02/21 01:08:08;;;;;;;778.60;730.60;;;4.90;99.90;;;;;;4998893;28;20460;-82
2022/02/21 01:10:36;;;;;;;805.10;755.47;;;4.90;99.90;;;;;;5000568;28;20482;-82
2022/02/21 01:13:04;;;;;;;829.10;776.80;;;4.80;99.90;;;;;;5021258;28;20966;-83
2022/02/21 01:15:36;;;;;;;857.93;802.30;;;4.80;99.90;;;;;;5020894;28;20473;-81
2022/02/21 01:18:09;;;;;;;885.27;826.10;;;4.80;99.90;;;;;;5005866;28;20836;-82
2022/02/21 01:21:05;;;;;;;905.03;844.23;;;4.80;99.90;;;;;;5002976;28;20450;-82
2022/02/21 01:23:42;;;;;;;905.97;846.07;;;5.00;99.90;;;;;;5002896;28;20530;-82
2022/02/21 01:26:24;;;;;;;918.27;856.20;;;5.00;99.90;;;;;;5004157;28;20469;-82
2022/02/21 01:28:55;;;;;;;929.40;867.10;;;5.00;99.90;;;;;;5001601;28;20462;-83
2022/02/21 01:31:22;;;;;;;931.43;868.93;;;5.30;99.90;;;;;;5006358;28;20518;-83
2022/02/21 01:33:50;;;;;;;930.10;868.40;;;5.20;99.90;;;;;;5021143;28;20506;-82
2022/02/21 01:36:20;;;;;;;929.80;867.80;;;5.20;99.90;;;;;;5010397;28;20478;-82
2022/02/21 01:38:46;;;;;;;945.23;883.03;;;5.30;99.90;;;;;;4999176;28;20446;-80
2022/02/21 01:41:13;;;;;;;945.37;882.77;;;5.60;99.90;;;;;;5008577;28;20488;-82
2022/02/21 01:43:40;;;;;;;952.47;890.73;;;5.50;99.90;;;;;;5019163;28;20453;-82
2022/02/21 01:46:08;;;;;;;933.80;872.10;;;5.80;99.90;;;;;;5012247;28;20454;-81
2022/02/21 01:48:35;;;;;;;943.50;882.60;;;5.70;99.90;;;;;;4999447;28;20460;-81
2022/02/21 01:51:02;;;;;;;948.17;888.60;;;5.80;97.60;;;;;;5005039;28;20698;-81
2022/02/21 01:53:29;;;;;;;949.37;892.27;;;6.00;95.80;;;;;;5018493;28;20457;-81
2022/02/21 01:55:58;;;;;;;947.83;893.83;;;6.00;95.10;;;;;;5017093;28;20901;-80
2022/02/21 01:58:24;;;;;;;922.53;873.53;;;5.90;94.80;;;;;;5018148;28;20570;-80
2022/02/21 02:00:51;;;;;;;628.47;598.23;;;5.90;94.40;;;;;;5012831;28;20453;-81
2022/02/21 02:03:20;;;;;;;603.50;574.47;;;6.10;90.40;;;;;;4998221;28;20955;-82
2022/02/21 02:05:47;;;;;;;560.13;533.93;;;6.00;90.50;;;;;;5000783;28;20856;-81
2022/02/21 02:08:14;;;;;;;558.20;531.83;;;5.90;89.70;;;;;;5017054;28;20455;-82
2022/02/21 02:10:44;;;;;;;498.43;475.43;;;5.90;89.70;;;;;;5014692;28;20473;-81
2022/02/21 02:13:10;;;;;;;486.30;464.30;;;5.90;88.40;;;;;;4997218;28;20919;-80
2022/02/21 02:15:37;;;;;;;429.43;410.43;;;5.80;89.20;;;;;;4998554;28;20481;-81
2022/02/21 02:18:04;;;;;;;436.10;417.00;;;5.80;87.20;;;;;;5017512;28;20453;-80
2022/02/21 02:20:32;;;;;;;385.70;369.10;;;5.80;87.80;;;;;;5016782;28;20449;-82
2022/02/21 02:23:05;;;;;;;338.63;324.43;;;5.80;84.80;;;;;;4998995;28;20461;-80
2022/02/21 02:25:32;;;;;;;330.13;316.53;;;5.80;84.20;;;;;;4997744;28;20486;-82
2022/02/21 02:27:59;;;;;;;313.67;301.07;;;5.80;85.10;;;;;;4997964;28;20465;-80
2022/02/21 02:30:26;;;;;;;301.97;290.17;;;5.90;89.00;;;;;;5014414;28;21008;-80
2022/02/21 02:32:54;;;;;;;305.80;294.00;;;5.90;89.70;;;;;;5002961;28;20477;-82
2022/02/21 02:35:21;;;;;;;310.23;298.47;;;5.90;90.40;;;;;;4998641;28;20561;-82
2022/02/21 02:37:48;;;;;;;237.87;229.13;;;5.80;90.30;;;;;;5013805;28;20457;-80
2022/02/21 02:40:16;;;;;;;183.27;176.53;;;5.90;89.70;;;;;;5016535;28;20453;-81
2022/02/21 02:42:43;;;;;;;153.73;148.13;;;6.00;89.80;;;;;;4998736;28;20461;-82
2022/02/21 02:45:09;;;;;;;106.83;103.03;;;5.80;90.60;;;;;;4997958;28;20474;-80
2022/02/21 02:47:36;;;;;;;83.27;80.27;;;5.80;90.30;;;;;;5016158;28;20453;-81
2022/02/21 02:50:04;;;;;;;76.93;74.13;;;5.40;91.80;;;;;;5016955;28;20804;-80
2022/02/21 02:52:30;;;;;;;68.10;65.60;;;5.30;91.40;;;;;;5016982;28;20800;-81
2022/02/21 02:54:57;;;;;;;71.03;68.50;;;5.20;90.40;;;;;;5000282;28;20470;-82
2022/02/21 02:57:25;;;;;;;67.80;65.40;;;5.10;91.70;;;;;;4998269;28;20457;-81
2022/02/21 02:59:53;;;;;;;66.53;64.13;;;5.10;91.90;;;;;;5014225;28;20533;-80
2022/02/21 03:02:20;;;;;;;65.03;62.73;;;5.10;91.30;;;;;;5017483;28;20511;-81
2022/02/21 03:04:47;;;;;;;65.07;62.73;;;5.10;90.80;;;;;;5016541;28;20473;-79
2022/02/21 03:07:14;;;;;;;62.67;60.37;;;5.20;89.90;;;;;;5018392;28;20449;-81
2022/02/21 03:09:41;;;;;;;63.83;61.53;;;5.10;90.40;;;;;;5004617;28;20481;-80
2022/02/21 03:12:12;;;;;;;63.50;61.20;;;5.10;91.20;;;;;;5005903;28;20449;-80
2022/02/21 03:14:40;;;;;;;67.70;65.30;;;5.20;91.20;;;;;;5014952;28;20476;-81
2022/02/21 03:17:06;;;;;;;164.83;156.40;;;5.20;91.80;;;;;;5012413;28;20488;-82
2022/02/21 03:19:34;;;;;;;166.57;158.27;;;5.10;92.00;;;;;;5001283;28;20464;-82
2022/02/21 03:22:01;;;;;;;165.70;156.63;;;5.10;92.50;;;;;;5014895;28;20480;-81
2022/02/21 03:24:32;;;;;;;161.03;153.17;;;5.00;92.90;;;;;;5001795;28;20518;-81
2022/02/21 03:27:06;;;;;;;154.37;146.67;;;5.00;93.00;;;;;;5017274;28;20448;-82
2022/02/21 03:29:33;;;;;;;144.80;137.50;;;5.20;91.00;;;;;;5020027;28;20480;-82
2022/02/21 03:32:03;;;;;;;132.47;126.57;;;5.10;91.90;;;;;;5002417;28;20454;-81
2022/02/21 03:34:29;;;;;;;131.67;126.00;;;5.20;91.20;;;;;;5016159;28;20549;-81
2022/02/21 03:36:56;;;;;;;132.50;126.60;;;5.20;89.10;;;;;;5011442;28;20457;-82
2022/02/21 03:39:25;;;;;;;87.83;83.77;;;5.40;88.40;;;;;;4999950;28;20462;-81
2022/02/21 03:41:57;;;;;;;47.87;45.03;;;5.70;86.00;;;;;;5003207;28;20887;-82
2022/02/21 03:44:26;;;;;;;32.60;29.90;;;5.90;84.90;;;;;;5003320;28;20847;-81
2022/02/21 03:46:53;;;;;;;9.27;8.47;;;5.60;89.50;;;;;;5004730;28;20453;-80
2022/02/21 03:49:21;;;;;;;17.67;16.47;;;4.50;89.80;;;;;;5015605;28;20851;-80
2022/02/21 03:51:54;;;;;;;82.83;79.60;;;3.60;98.30;;;;;;5016698;28;20511;-81
2022/02/21 03:54:20;;;;;;;312.47;301.60;;;2.90;99.90;;;;;;4995742;28;20473;-80
2022/02/21 03:56:59;;;;;;;608.37;582.87;;;2.20;99.90;;;;;;5004987;28;20481;-82
2022/02/21 03:59:42;;;;;;;773.77;733.00;;;2.20;99.90;;;;;;4999721;28;20898;-82
2022/02/21 04:02:09;;;;;;;876.10;819.97;;;2.20;99.90;;;;;;5011468;28;20449;-79
2022/02/21 04:04:38;;;;;;;904.60;847.30;;;2.40;99.90;;;;;;5012706;28;20474;-81
2022/02/21 04:07:05;;;;;;;895.83;839.07;;;2.40;99.90;;;;;;5004927;28;20947;-80
2022/02/21 04:09:32;;;;;;;885.57;829.07;;;2.30;99.90;;;;;;5013144;28;20866;-79
2022/02/21 04:11:59;;;;;;;932.63;866.00;;;2.20;99.90;;;;;;5008595;28;20469;-80
2022/02/21 04:14:25;;;;;;;946.10;868.20;;;2.10;99.90;;;;;;5016043;28;20982;-79
2022/02/21 04:16:52;;;;;;;950.50;868.93;;;2.20;99.90;;;;;;5003900;28;20450;-80
2022/02/21 04:19:19;;;;;;;946.13;867.13;;;2.20;99.90;;;;;;5018137;28;20460;-80
2022/02/21 04:21:47;;;;;;;941.73;864.33;;;2.30;99.90;;;;;;5007132;28;20450;-81
2022/02/21 04:24:14;;;;;;;939.80;863.13;;;2.50;99.90;;;;;;5005477;28;20476;-80
2022/02/21 04:26:41;;;;;;;879.73;812.30;;;2.60;99.90;;;;;;5005630;28;20450;-80
2022/02/21 04:29:07;;;;;;;870.87;806.87;;;2.80;99.90;;;;;;4989003;28;20450;-81
2022/02/21 04:31:34;;;;;;;858.80;801.10;;;3.00;99.90;;;;;;5004610;28;20477;-81
2022/02/21 04:34:01;;;;;;;809.40;755.80;;;3.00;99.90;;;;;;5004802;28;20498;-81
2022/02/21 04:36:28;;;;;;;795.37;741.80;;;3.00;99.90;;;;;;5020088;28;20449;-81
2022/02/21 04:38:56;;;;;;;746.30;699.37;;;3.10;99.90;;;;;;5010046;28;20458;-83
2022/02/21 04:41:23;;;;;;;757.30;707.80;;;3.10;99.90;;;;;;5020746;28;20852;-81
2022/02/21 04:43:53;;;;;;;741.00;691.33;;;3.20;99.90;;;;;;5006967;28;20474;-81
2022/02/21 04:46:20;;;;;;;623.70;590.33;;;3.20;99.90;;;;;;5017377;28;20459;-79
2022/02/21 04:48:47;;;;;;;551.70;525.40;;;3.30;99.90;;;;;;5016046;28;20946;-81
2022/02/21 04:51:14;;;;;;;513.17;491.13;;;3.30;99.90;;;;;;5023851;28;20481;-81
2022/02/21 04:53:43;;;;;;;409.43;393.63;;;3.40;99.90;;;;;;5009927;28;20482;-81
2022/02/21 04:56:11;;;;;;;367.73;354.73;;;3.40;99.90;;;;;;5014013;28;20453;-81
2022/02/21 04:58:38;;;;;;;296.43;285.43;;;3.50;99.90;;;;;;5024624;28;20465;-81
2022/02/21 05:01:05;;;;;;;247.13;238.63;;;3.50;99.90;;;;;;5008669;28;20445;-81
2022/02/21 05:03:35;;;;;;;213.40;206.03;;;3.50;99.90;;;;;;5020059;28;20454;-82
2022/02/21 05:06:02;;;;;;;212.83;205.03;;;3.70;99.90;;;;;;5016979;28;20456;-81
2022/02/21 05:08:33;;;;;;;130.10;125.30;;;3.50;99.90;;;;;;5022806;28;20507;-82
2022/02/21 05:10:59;;;;;;;160.80;154.83;;;3.50;99.90;;;;;;5003633;28;20478;-80
2022/02/21 05:13:28;;;;;;;123.20;117.47;;;3.40;99.90;;;;;;5018183;28;20453;-80
2022/02/21 05:15:54;;;;;;;144.23;139.20;;;3.70;99.90;;;;;;5019445;28;20449;-81
2022/02/21 05:18:21;;;;;;;121.27;115.83;;;3.60;99.90;;;;;;5015672;28;20534;-81
2022/02/21 05:20:48;;;;;;;126.60;121.53;;;3.70;99.90;;;;;;5006405;28;20525;-81
2022/02/21 05:23:15;;;;;;;149.10;143.03;;;3.90;99.90;;;;;;5004883;28;20534;-81
2022/02/21 05:25:41;;;;;;;69.50;65.63;;;3.80;99.90;;;;;;5021603;28;20477;-81
2022/02/21 05:28:08;;;;;;;58.50;54.60;;;3.90;99.90;;;;;;5012593;28;20522;-80
2022/02/21 05:30:36;;;;;;;16.33;10.50;;;3.70;99.90;;;;;;5026449;28;20532;-81
2022/02/21 05:33:05;;;;;;;16.60;8.63;;;4.10;99.90;;;;;;5010557;28;20460;-82
2022/02/21 05:35:31;;;;;;;14.40;5.57;;;4.10;99.90;;;;;;5023849;28;20491;-81
2022/02/21 05:37:58;;;;;;;11.70;6.03;;;4.40;99.90;;;;;;5012499;28;20465;-81
2022/02/21 05:40:25;;;;;;;38.87;37.07;;;4.50;99.90;;;;;;5018652;28;20819;-81
2022/02/21 05:42:52;;;;;;;107.43;103.23;;;3.10;99.90;;;;;;5007846;28;20460;-81
2022/02/21 05:45:18;;;;;;;241.77;234.17;;;2.70;99.90;;;;;;5015599;28;20474;-81
2022/02/21 05:47:46;;;;;;;126.00;121.83;;;2.50;99.90;;;;;;5011101;28;20480;-81
2022/02/21 05:50:18;;;;;;;320.80;310.30;;;2.50;99.90;;;;;;5007965;28;20456;-81
2022/02/21 05:52:46;;;;;;;412.43;397.47;;;2.40;99.90;;;;;;5013379;28;20445;-81
2022/02/21 05:55:13;;;;;;;377.33;364.93;;;2.40;99.90;;;;;;5010053;28;20466;-81
2022/02/21 05:57:55;;;;;;;549.97;524.97;;;2.50;99.90;;;;;;5004915;28;20478;-81
2022/02/21 06:00:22;;;;;;;527.87;503.43;;;2.60;99.90;;;;;;5018843;28;20445;-82
2022/02/21 06:02:50;;;;;;;499.83;479.40;;;2.70;99.90;;;;;;5006111;28;20465;-82
2022/02/21 06:05:22;;;;;;;519.80;497.40;;;2.50;99.90;;;;;;5021204;28;20473;-79
2022/02/21 06:07:48;;;;;;;513.77;490.50;;;2.60;99.90;;;;;;5017064;28;20454;-81
2022/02/21 06:10:15;;;;;;;568.70;538.70;;;2.60;99.90;;;;;;5017907;28;20481;-82
2022/02/21 06:12:42;;;;;;;553.73;524.97;;;2.70;99.90;;;;;;5013158;28;20480;-80
2022/02/21 06:15:10;;;;;;;533.97;508.47;;;2.60;99.90;;;;;;4996152;28;21009;-80
2022/02/21 06:17:37;;;;;;;533.70;506.03;;;2.60;99.90;;;;;;5009760;28;20450;-80
2022/02/21 06:20:06;;;;;;;491.07;469.20;;;2.60;99.90;;;;;;4999367;28;20461;-80
2022/02/21 06:22:33;;;;;;;475.43;456.57;;;2.80;99.90;;;;;;4981610;28;20451;-80
2022/02/21 06:25:00;;;;;;;522.10;498.93;;;3.00;99.90;;;;;;5013641;28;20483;-80
2022/02/21 06:27:27;;;;;;;578.50;545.40;;;3.00;99.90;;;;;;5009738;28;20909;-81
2022/02/21 06:29:54;;;;;;;564.20;535.93;;;2.80;99.90;;;;;;5022269;28;20465;-81
2022/02/21 06:32:21;;;;;;;427.13;410.83;;;3.00;99.90;;;;;;5022892;28;20476;-80
2022/02/21 06:34:48;;;;;;;401.60;386.40;;;3.10;99.90;;;;;;5020230;28;20474;-80
2022/02/21 06:37:16;;;;;;;380.00;364.80;;;3.00;99.90;;;;;;5021946;28;20957;-80
2022/02/21 06:39:43;;;;;;;391.37;376.97;;;3.00;99.90;;;;;;5022389;28;20965;-80
2022/02/21 06:42:10;;;;;;;339.00;326.93;;;3.00;99.90;;;;;;5021749;28;20460;-80
2022/02/21 06:44:36;;;;;;;367.10;352.73;;;2.90;99.90;;;;;;5022208;28;20476;-81
2022/02/21 06:47:04;;;;;;;371.10;358.10;;;2.80;99.90;;;;;;5023125;28;20448;-81
2022/02/21 06:49:30;;;;;;;343.93;331.93;;;2.80;99.90;;;;;;5023438;28;20464;-81
2022/02/21 06:51:57;;;;;;;217.43;209.90;;;2.80;99.90;;;;;;5022529;28;20480;-81
2022/02/21 06:54:26;;;;;;;277.43;267.00;;;3.00;99.90;;;;;;5023790;28;20481;-82
2022/02/21 06:56:53;;;;;;;200.23;193.17;;;3.00;99.90;;;;;;5024275;28;20811;-81
2022/02/21 06:59:19;;;;;;;217.10;208.93;;;3.10;99.90;;;;;;5023195;28;20520;-81
2022/02/21 07:01:46;;;;;;;202.20;194.40;;;3.00;99.90;;;;;;5023405;28;20462;-81
2022/02/21 07:04:13;;;;;;;201.33;193.83;;;3.10;99.90;;;;;;5024979;28;20475;-81
2022/02/21 07:06:40;;;;;;;99.23;94.97;;;3.30;99.90;;;;;;5024147;28;20450;-81
2022/02/21 07:09:07;;;;;;;75.87;71.93;;;3.50;99.90;;;;;;5022199;28;20453;-81
2022/02/21 07:11:35;;;;;;;92.33;88.20;;;3.60;99.90;;;;;;5023925;28;20488;-82
2022/02/21 07:14:05;;;;;;;64.70;61.73;;;3.90;99.90;;;;;;5024902;28;20549;-81
2022/02/21 07:16:32;;;;;;;52.50;49.20;;;3.80;99.90;;;;;;5024633;28;20449;-82
2022/02/21 07:18:59;;;;;;;30.23;27.93;;;3.90;99.90;;;;;;5024054;28;20476;-81
2022/02/21 07:21:26;;;;;;;20.57;18.93;;;4.00;99.90;;;;;;5024047;28;20503;-82
2022/02/21 07:23:53;;;;;;;11.10;7.23;;;4.30;99.60;;;;;;5023720;28;20479;-81
2022/02/21 07:26:20;;;;;;;10.00;5.23;;;4.30;99.60;;;;;;5024248;28;20471;-82
2022/02/21 07:28:49;;;;;;;10.10;4.50;;;4.50;97.80;;;;;;5024680;28;20492;-82
2022/02/21 07:31:16;;;;;;;17.90;5.23;;;4.60;96.10;;;;;;5025350;28;20487;-82
2022/02/21 07:33:43;;;;;;;12.77;3.90;;;4.70;94.40;;;;;;5028572;28;20457;-82
2022/02/21 07:36:10;;;;;;;8.60;3.40;;;4.90;93.10;;;;;;5028980;28;20457;-83
2022/02/21 07:38:36;;;;;;;11.83;3.67;;;4.90;90.60;;;;;;5028739;28;20460;-83
2022/02/21 07:41:05;;;;;;;14.17;4.20;;;5.10;90.90;;;;;;5027520;28;20449;-83
2022/02/21 07:43:48;;;;;;;14.63;3.70;;;5.10;90.30;;;;;;5022616;28;20495;-83
2022/02/21 07:46:18;;;;;;;7.63;2.40;;;5.10;90.30;;;;;;5023389;28;20483;-82
2022/02/21 07:48:46;;;;;;;11.57;3.87;;;5.30;89.20;;;;;;5027485;28;20532;-84
2022/02/21 07:51:17;;;;;;;11.00;3.17;;;5.30;88.40;;;;;;5027238;28;20547;-83
2022/02/21 07:53:44;;;;;;;8.43;2.07;;;5.30;87.80;;;;;;5027989;28;20965;-83
2022/02/21 07:56:11;;;;;;;10.90;2.97;;;5.30;85.80;;;;;;5029340;28;20493;-82
2022/02/21 07:58:38;;;;;;;10.90;3.13;;;5.50;83.90;;;;;;5029062;28;20495;-82
2022/02/21 08:01:05;;;;;;;10.33;3.07;;;5.40;83.70;;;;;;5027477;28;20450;-82
2022/02/21 08:03:36;;;;;;;7.63;2.83;;;5.40;84.50;;;;;;5028913;28;20449;-82
2022/02/21 08:06:04;;;;;;;11.70;2.27;;;5.30;84.30;;;;;;5027493;28;20488;-82
2022/02/21 08:08:30;;;;;;;8.53;2.83;;;5.40;83.50;;;;;;5025219;28;20535;-81
2022/02/21 08:10:57;;;;;;;7.13;2.27;;;5.50;81.80;;;;;;5026418;28;20450;-82
2022/02/21 08:13:24;;;;;;;5.33;2.07;;;5.60;82.70;;;;;;5026869;28;20517;-81
2022/02/21 08:15:51;;;;;;;4.80;2.13;;;5.50;84.30;;;;;;5027556;28;20461;-81
2022/02/21 08:18:18;;;;;;;6.73;2.70;;;5.50;82.50;;;;;;5026805;28;20496;-82
2022/02/21 08:20:46;;;;;;;10.00;2.60;;;5.50;83.50;;;;;;5024378;28;20457;-81
2022/02/21 08:23:17;;;;;;;13.83;2.60;;;5.60;81.00;;;;;;5024590;28;20541;-82
2022/02/21 08:25:46;;;;;;;6.57;2.10;;;5.50;80.30;;;;;;5025544;28;20552;-81
2022/02/21 08:28:14;;;;;;;8.10;1.83;;;5.50;82.20;;;;;;5025441;28;20453;-82
2022/02/21 08:30:41;;;;;;;11.80;3.20;;;5.50;80.30;;;;;;5027083;28;20453;-82
2022/02/21 08:33:08;;;;;;;10.03;2.53;;;5.40;81.70;;;;;;5026636;28;20532;-82
2022/02/21 08:35:35;;;;;;;6.03;2.20;;;5.50;84.50;;;;;;5022454;28;20488;-81
2022/02/21 08:38:09;;;;;;;13.83;2.10;;;5.60;81.60;;;;;;5021964;28;20468;-82
2022/02/21 08:40:56;;;;;;;7.50;2.77;;;5.50;79.90;;;;;;5021678;28;20456;-84
2022/02/21 08:43:29;;;;;;;9.07;2.67;;;5.50;81.80;;;;;;5021691;28;20519;-82
2022/02/21 08:46:05;;;;;;;12.07;2.30;;;5.60;80.40;;;;;;5019617;28;20958;-83
2022/02/21 08:48:54;;;;;;;14.43;2.93;;;5.60;78.00;;;;;;5019838;28;20580;-81
2022/02/21 08:51:28;;;;;;;10.40;3.13;;;5.60;78.20;;;;;;5020309;28;20477;-82
2022/02/21 08:54:02;;;;;;;8.40;3.33;;;5.70;76.80;;;;;;5021245;28;20473;-82
2022/02/21 08:56:38;;;;;;;14.17;2.43;;;5.80;79.50;;;;;;5022524;28;20449;-82
2022/02/21 09:07:35;;;;;;;19.63;2.60;;;6.00;73.90;;;;;;5006838;28;20881;-82
2022/02/21 09:10:07;;;;;;;11.10;3.37;;;6.00;72.90;;;;;;5001522;28;20450;-82
2022/02/21 09:12:42;;;;;;;9.57;2.47;;;6.20;74.70;;;;;;5000498;28;20478;-82
2022/02/21 09:15:14;;;;;;;11.97;2.60;;;6.30;74.80;;;;;;5000337;28;20978;-83
2022/02/21 09:17:44;;;;;;;8.40;1.80;;;6.40;73.30;;;;;;5001523;28;20470;-81
2022/02/21 09:20:20;;;;;;;10.30;3.33;;;6.40;71.20;;;;;;5000908;28;20788;-83
2022/02/21 09:22:49;;;;;;;9.10;2.63;;;6.70;73.10;;;;;;5001886;28;20520;-82
2022/02/21 09:25:19;;;;;;;10.57;2.67;;;6.70;71.20;;;;;;5001086;28;20521;-82
2022/02/21 09:27:46;;;;;;;14.30;4.27;;;6.80;68.40;;;;;;5002323;28;20457;-82
2022/02/21 09:30:21;;;;;;;5.47;2.10;;;6.90;68.20;;;;;;5000029;28;20458;-82
2022/02/21 09:32:55;;;;;;;10.73;2.40;;;7.00;65.70;;;;;;5001944;28;20480;-83
2022/02/21 09:35:24;;;;;;;7.47;2.13;;;7.30;67.70;;;;;;5000462;28;20474;-83
2022/02/21 09:37:58;;;;;;;8.77;2.77;;;7.40;65.20;;;;;;5001337;28;20478;-82
2022/02/21 09:40:29;;;;;;;8.60;2.30;;;7.90;65.50;;;;;;5001868;28;20504;-83
2022/02/21 09:43:05;;;;;;;10.53;3.83;;;7.90;63.30;;;;;;5000128;28;20492;-82
2022/02/21 09:45:36;;;;;;;13.60;3.00;;;7.50;62.90;;;;;;4999838;28;20486;-81
2022/02/21 09:48:10;;;;;;;9.57;2.33;;;7.40;62.20;;;;;;4998933;28;20521;-83
2022/02/21 09:50:37;;;;;;;10.30;3.07;;;7.10;62.70;;;;;;5001957;28;20445;-82
2022/02/21 09:53:07;;;;;;;14.43;3.40;;;7.20;63.00;;;;;;4999617;28;20538;-81
2022/02/21 09:55:37;;;;;;;10.97;2.80;;;7.10;65.80;;;;;;4998460;28;20521;-83
2022/02/21 09:58:11;;;;;;;10.13;3.07;;;7.10;65.40;;;;;;5000217;28;20509;-80
2022/02/21 10:00:41;;;;;;;12.70;2.90;;;7.10;75.30;;;;;;4999807;28;20469;-82
2022/02/21 10:03:18;;;;;;;11.80;3.50;;;7.00;68.90;;;;;;4999905;28;20509;-83
2022/02/21 10:05:51;;;;;;;14.53;2.50;;;7.10;69.60;;;;;;5000482;28;20524;-82
2022/02/21 10:08:18;;;;;;;11.93;3.10;;;7.10;72.80;;;;;;4999436;28;20461;-82
2022/02/21 10:10:54;;;;;;;20.73;3.80;;;7.10;74.00;;;;;;5000338;28;20458;-82
2022/02/21 10:13:27;;;;;;;28.13;5.63;;;7.10;73.10;;;;;;5000839;28;20484;-82
2022/02/21 10:16:01;;;;;;;13.90;3.17;;;7.40;74.20;;;;;;5000486;28;20466;-82
2022/02/21 10:18:39;;;;;;;10.30;2.50;;;7.50;70.80;;;;;;4999921;28;20545;-83
2022/02/21 10:21:14;;;;;;;15.20;4.63;;;7.40;74.90;;;;;;5001621;28;20516;-83
2022/02/21 10:23:44;;;;;;;8.67;3.43;;;7.50;74.40;;;;;;5001410;28;20465;-82
2022/02/21 10:26:12;;;;;;;17.00;3.17;;;7.40;75.80;;;;;;4999322;28;20446;-81
2022/02/21 10:28:51;;;;;;;16.17;4.10;;;7.20;99.90;;;;;;4997676;28;20458;-80
2022/02/21 10:31:21;;;;;;;10.97;2.80;;;6.50;99.90;;;;;;5001047;28;20457;-80
2022/02/21 10:33:50;;;;;;;17.80;4.80;;;6.20;99.90;;;;;;4999277;28;21022;-81
2022/02/21 10:36:31;;;;;;;8.70;2.90;;;5.70;99.90;;;;;;5002767;28;20438;-81
2022/02/21 10:39:18;;;;;;;19.40;5.27;;;5.00;99.90;;;;;;5003549;28;20828;-80
2022/02/21 10:41:49;;;;;;;15.30;6.23;;;5.00;99.90;;;;;;5002245;28;20460;-79
2022/02/21 10:44:24;;;;;;;19.37;9.00;;;4.90;99.90;;;;;;4996804;28;20942;-79
2022/02/21 10:47:32;;;;;;;18.83;7.53;;;4.90;99.90;;;;;;4997468;28;20557;-78
2022/02/21 10:50:00;;;;;;;26.07;21.60;;;4.80;99.90;;;;;;4997919;28;20493;-79
2022/02/21 10:52:28;;;;;;;19.73;17.07;;;4.80;99.90;;;;;;4998133;28;20473;-80
2022/02/21 10:54:56;;;;;;;90.00;86.00;;;4.90;99.90;;;;;;4998655;28;20482;-80
2022/02/21 10:57:25;;;;;;;105.97;101.43;;;5.10;99.90;;;;;;4998535;28;20461;-80
2022/02/21 10:59:53;;;;;;;71.83;68.17;;;5.10;99.90;;;;;;4999301;28;20974;-80
2022/02/21 11:02:21;;;;;;;81.80;77.30;;;5.20;99.90;;;;;;5001571;28;20457;-80
2022/02/21 11:04:50;;;;;;;165.43;158.93;;;5.30;99.90;;;;;;5000739;28;20489;-79
2022/02/21 11:07:17;;;;;;;134.37;128.13;;;5.50;99.90;;;;;;5001881;28;20553;-80
2022/02/21 11:09:51;;;;;;;45.20;42.33;;;5.70;99.90;;;;;;5002320;28;21009;-80
2022/02/21 11:12:22;;;;;;;31.93;30.17;;;5.90;99.90;;;;;;5003889;28;20477;-81
2022/02/21 11:14:50;;;;;;;39.57;37.00;;;6.10;99.90;;;;;;5004964;28;20536;-80
2022/02/21 11:17:18;;;;;;;21.13;17.37;;;6.00;99.90;;;;;;5004062;28;20505;-81
2022/02/21 11:19:45;;;;;;;16.87;15.33;;;6.10;99.90;;;;;;5004818;28;20464;-81
2022/02/21 11:22:14;;;;;;;29.30;27.10;;;5.80;99.90;;;;;;5005382;28;20446;-80
2022/02/21 11:24:49;;;;;;;26.33;24.57;;;5.50;99.90;;;;;;5000483;28;20501;-78
2022/02/21 11:27:34;;;;;;;106.00;101.30;;;5.30;99.90;;;;;;4999277;28;20453;-79
2022/02/21 11:30:10;;;;;;;119.37;114.60;;;5.20;99.90;;;;;;4998929;28;21228;-80
2022/02/21 11:32:40;;;;;;;211.50;202.80;;;5.10;99.90;;;;;;5000478;28;20481;-79
2022/02/21 11:35:15;;;;;;;361.23;346.97;;;5.20;99.90;;;;;;5000077;28;20480;-78
2022/02/21 11:37:42;;;;;;;273.00;262.73;;;5.10;99.90;;;;;;4999416;28;20461;-79
2022/02/21 11:40:10;;;;;;;331.37;319.47;;;5.00;99.90;;;;;;4999759;28;20839;-79
2022/02/21 11:42:39;;;;;;;294.23;284.27;;;5.10;99.90;;;;;;5000182;28;21046;-79
2022/02/21 11:45:22;;;;;;;405.87;390.67;;;5.00;99.90;;;;;;5000378;28;20474;-79
2022/02/21 11:47:52;;;;;;;453.57;435.47;;;5.00;99.90;;;;;;5001404;28;20534;-80
2022/02/21 11:50:28;;;;;;;530.77;505.27;;;5.00;99.90;;;;;;5002773;28;20538;-80
2022/02/21 11:52:57;;;;;;;519.13;496.53;;;5.20;99.90;;;;;;5003260;28;20478;-80
2022/02/21 11:55:44;;;;;;;545.97;520.07;;;5.20;99.90;;;;;;5001791;28;20482;-81
2022/02/21 11:58:34;;;;;;;506.03;483.43;;;5.20;99.90;;;;;;5002473;28;20464;-79
2022/02/21 12:01:13;;;;;;;515.13;492.07;;;5.30;99.90;;;;;;5002906;28;20454;-79
2022/02/21 12:03:40;;;;;;;492.27;472.10;;;5.20;99.90;;;;;;5003348;28;20449;-80
2022/02/21 12:06:26;;;;;;;447.17;429.37;;;5.30;99.90;;;;;;4999831;28;20557;-80
2022/02/21 12:08:54;;;;;;;543.10;518.00;;;5.40;99.90;;;;;;5001645;28;20529;-80
2022/02/21 12:11:21;;;;;;;455.13;437.00;;;5.40;99.90;;;;;;5000157;28;20454;-79
2022/02/21 12:14:22;;;;;;;454.20;435.87;;;5.40;99.90;;;;;;5000037;28;20487;-79
2022/02/21 12:17:08;;;;;;;464.60;445.70;;;5.60;99.90;;;;;;5000573;28;20808;-80
2022/02/21 12:19:37;;;;;;;487.07;465.90;;;5.70;99.90;;;;;;4998207;28;20464;-79
2022/02/21 12:22:22;;;;;;;475.20;454.93;;;5.70;99.90;;;;;;4999421;28;20537;-79
2022/02/21 12:25:13;;;;;;;449.53;431.17;;;5.70;99.90;;;;;;4999445;28;20477;-80
2022/02/21 12:28:10;;;;;;;443.00;426.00;;;5.70;99.90;;;;;;4999455;28;20485;-79
2022/02/21 12:30:39;;;;;;;402.70;387.87;;;5.70;99.90;;;;;;4998676;28;20449;-79
2022/02/21 12:33:07;;;;;;;471.27;451.57;;;5.70;99.90;;;;;;4999326;28;20488;-79
2022/02/21 12:35:49;;;;;;;543.43;517.90;;;5.70;99.90;;;;;;5000299;28;20474;-79
2022/02/21 12:38:17;;;;;;;413.70;398.33;;;5.90;99.90;;;;;;4999284;28;20464;-79
2022/02/21 12:40:59;;;;;;;377.50;363.40;;;5.80;99.90;;;;;;5000250;28;20465;-80
2022/02/21 12:43:41;;;;;;;507.80;485.43;;;5.90;99.90;;;;;;4998739;28;21069;-80
2022/02/21 12:46:08;;;;;;;283.47;273.37;;;6.10;99.90;;;;;;4998406;28;20454;-80
2022/02/21 12:48:39;;;;;;;368.57;355.37;;;5.90;99.90;;;;;;4999563;28;20723;-79
2022/02/21 12:51:06;;;;;;;402.00;387.63;;;5.90;99.90;;;;;;4999204;28;20464;-80